Pompano Beach Airpark Information

FAA: PMP - ICAO: KPMP

Pompano Beach Airpark (Airport) Location

State Florida
County Broward
City Pompano Beach
Pompano Beach Airpark (Airport) is 1 mile northeast of Pompano Beach, FL.
Latitude 26-14-50.6429N
Longitude 080-06-40.3490W
Elevation 19ft

Pompano Beach Airpark METARs

METAR KPMP 262301Z 02007KT 10SM BKN016 23/20 A2998 RMK AO2 T02330200
Altimeter 29.98"
Temperature 23.3°C (73.9°F)
Wind 20° at 7KT
Clouds broken at 1,600ft
Visibility 10.0mi
Time observed: 2022-01-26T23:01:00Z

Pompano Beach Airpark (Airport) Details

Status Operational
Activation July 1944
Ownership Public
Usage Public
Chart MIAMI
ATC on-site Yes
Beacon schedule sunset-sunrise
Beacon color clear green

Pompano Beach Airpark (Airport) Contacts

Owner CITY OF POMPANO BEACH
Owner address 100 WEST ATLANTIC BOULEVARD, CITY HALL, POMPANO BEACH, FL 33061
Owner phone 954-786-4135
Manager ROBERT L. NEWBERRY
Manager address 804 LAKE HOLLINGSWORTH DR, LAKELAND, FL 33803
Manager phone 863-899-5216

Pompano Beach Airpark Radio Frequencies

Pompano Beach Airpark (Airport) Radio Frequencies

UNICOM 122.95
Common traffic advisory frequency (CTAF) 125.4